Arbor Vitae, Wisconsin
Current Conditions -  °F | °C
As of 12:55 AM on Friday 28 Nov 2014 (Local Time) from KARV Reporting Station
Overcast Overcast  
Wind Chill: -1°   Ceiling: 7500
Heat Index: -1°   Visibility: 10mi
Dew Point: -5°   Wind: 0mph
Humidity: 83%   Direction: NA
Pressure: 30.21"   Gusts: NA
Location:  45.9553°N, 89.6779°W
Report Text: KARV 280655Z AUTO 00000KT 10SM BKN075 OVC090 M18/M21 A3021 RMK AO2 T11851207
Loading
Personal Weather Stations






























Interactive Weather Map New forecast layout! Learn more

10-Day Weather Forecast

Advertisements
Track Severe Weather on mobile